Startpagina
METAR-TAF:

METAR-TAF

Vliegvelden :

Norman Manley International Airport

Kingston, Jamaica

breedte: 17-56N, lengte: 076-47W, hoogte: 3 m

Actueel weer

Dit bericht is 27 minuten geleden gemaakt, om 23:00 UTC
Wind 16 kt uit het zuidoosten
Temperatuur 28°C
Vochtigheid 84%
Druk 1010 hPa
Zicht 10 km of meer
Weinig wolken op 2000 ft

METAR: MKJP 262300Z 13016KT 9999 FEW020 28/25 Q1010

Tijdstip: 18:27 (23:27 UTC)

Verwachting

Dit bericht is 6 uur en het 12 minuten geleden gemaakt, om 17:15 UTC
Verwachting geldig van 26 om 18 UTC tot 27 om 18 UTC
Wind 25 kt uit het zuidoosten
Zicht 10 km of meer
Weinig wolken op 2000 ft
Wijzigt naar
van 27 om 02 UTC tot 27 om 04 UTC
Wind 15 kt uit het zuidoosten

TAF: MKJP 261715Z 2618/2718 13025KT 9999 FEW020 BECMG 2702/2704 13015KT

Waarnemingen en weersverwachtingen van meer dan 4000 vliegvelden (METAR en TAF).

De beschikbare stations zijn de gele en rode punten op de kaart.

Ga met uw muis naar het station om de naam te zien.

Klik dan om waarnemingen en weersverwachtingen te zien.

kaart wijzigen: klik op de groene knoppen met een zwart kruis om in te zoomen, op de groene knop met een streepje om uit te zoomen of op de groene pijlen voor aangrenzende kaarten.


METAR-TAF: